createdAt,value
2023-05-14T00:02:24.215Z,10.64
2023-05-14T00:04:52.081Z,10.71
2023-05-14T00:07:19.865Z,10.74
2023-05-14T00:09:47.631Z,11.09
2023-05-14T00:12:15.533Z,11.79
2023-05-14T00:14:43.325Z,12.05
2023-05-14T00:17:11.099Z,11.40
2023-05-14T00:19:42.029Z,11.21
2023-05-14T00:22:09.847Z,11.32
2023-05-14T00:24:37.787Z,11.34
2023-05-14T00:27:05.645Z,11.48
2023-05-14T00:29:33.493Z,11.89
2023-05-14T00:32:01.303Z,12.23
2023-05-14T00:34:29.112Z,11.96
2023-05-14T00:36:59.083Z,11.74
2023-05-14T00:39:27.023Z,11.71
2023-05-14T00:41:54.768Z,11.51
2023-05-14T00:44:22.521Z,11.72
2023-05-14T00:46:50.327Z,12.28
2023-05-14T00:49:18.189Z,11.53
2023-05-14T00:51:47.105Z,11.41
2023-05-14T00:54:16.634Z,11.25
2023-05-14T00:56:44.789Z,11.27
2023-05-14T00:59:12.691Z,11.28
2023-05-14T01:01:41.029Z,11.15
2023-05-14T01:04:09.014Z,11.05
2023-05-14T01:06:37.695Z,11.07
2023-05-14T01:09:07.305Z,10.79
2023-05-14T01:11:37.848Z,11.31
2023-05-14T01:14:07.736Z,11.37
2023-05-14T01:16:35.692Z,11.61
2023-05-14T01:19:03.672Z,11.57
2023-05-14T01:21:37.444Z,11.62
2023-05-14T01:24:05.635Z,11.68
2023-05-14T01:26:33.477Z,11.43
2023-05-14T01:29:02.223Z,11.62
2023-05-14T01:31:30.102Z,12.01
2023-05-14T01:33:57.969Z,12.07
2023-05-14T01:36:25.734Z,12.10
2023-05-14T01:38:54.890Z,11.06
2023-05-14T01:41:22.784Z,11.16
2023-05-14T01:43:50.654Z,10.94
2023-05-14T01:46:19.356Z,11.50
2023-05-14T01:48:47.286Z,10.87
2023-05-14T01:51:15.087Z,11.05
2023-05-14T01:53:42.875Z,11.52
2023-05-14T01:56:11.924Z,11.34
2023-05-14T01:58:39.728Z,11.33
2023-05-14T02:01:07.549Z,12.07
2023-05-14T02:03:35.309Z,11.58
2023-05-14T02:06:03.011Z,11.90
2023-05-14T02:08:30.679Z,11.07
2023-05-14T02:10:58.563Z,11.02
2023-05-14T02:13:28.470Z,11.11
2023-05-14T02:15:56.791Z,11.36
2023-05-14T02:18:24.683Z,10.94
2023-05-14T02:20:52.529Z,11.27
2023-05-14T02:23:23.803Z,11.25
2023-05-14T02:25:59.029Z,11.68
2023-05-14T02:28:28.133Z,11.50
2023-05-14T02:30:59.375Z,11.02
2023-05-14T02:33:27.201Z,10.91
2023-05-14T02:35:54.905Z,11.37
2023-05-14T02:38:22.650Z,11.57
2023-05-14T02:40:50.328Z,11.71
2023-05-14T02:43:17.909Z,11.57
2023-05-14T02:45:47.112Z,11.73
2023-05-14T02:48:14.842Z,11.68
2023-05-14T02:50:42.537Z,11.77
2023-05-14T02:53:10.302Z,12.17
2023-05-14T02:55:38.065Z,11.97
2023-05-14T02:58:05.834Z,11.78
2023-05-14T03:00:33.649Z,11.64
2023-05-14T03:03:03.438Z,11.66
2023-05-14T03:05:31.767Z,11.53
2023-05-14T03:07:59.552Z,11.63
2023-05-14T03:10:27.269Z,11.66
2023-05-14T03:12:55.017Z,11.49
2023-05-14T03:15:22.872Z,11.38
2023-05-14T03:17:51.068Z,11.46
2023-05-14T03:20:20.579Z,11.49
2023-05-14T03:22:48.344Z,11.41
2023-05-14T03:25:18.557Z,11.58
2023-05-14T03:27:46.360Z,11.51
2023-05-14T03:30:14.183Z,11.60
2023-05-14T03:32:43.070Z,11.55
2023-05-14T03:35:10.960Z,11.29
2023-05-14T03:37:40.356Z,11.00
2023-05-14T03:40:08.796Z,10.79
2023-05-14T03:42:37.536Z,10.58
2023-05-14T03:45:05.662Z,10.25
2023-05-14T03:47:33.543Z,10.26
2023-05-14T03:50:02.706Z,10.60
2023-05-14T03:52:30.749Z,10.62
2023-05-14T03:54:59.899Z,10.78
2023-05-14T03:57:27.667Z,10.64
2023-05-14T03:59:57.144Z,10.72
2023-05-14T04:02:25.012Z,10.83
2023-05-14T04:04:52.968Z,10.78
2023-05-14T04:07:21.461Z,10.82
2023-05-14T04:09:49.370Z,10.90
2023-05-14T04:12:18.542Z,10.76
2023-05-14T04:14:46.463Z,10.78
2023-05-14T04:17:14.233Z,10.85
2023-05-14T04:19:42.399Z,10.96
2023-05-14T04:22:10.175Z,11.02
2023-05-14T04:24:38.014Z,11.14
2023-05-14T04:27:06.380Z,11.24
2023-05-14T04:29:35.553Z,11.21
2023-05-14T04:32:03.233Z,11.37
2023-05-14T04:34:30.967Z,11.38
2023-05-14T04:36:58.735Z,11.24
2023-05-14T04:39:26.515Z,11.31
2023-05-14T04:41:54.274Z,11.36
2023-05-14T04:44:21.988Z,11.54
2023-05-14T04:46:51.250Z,11.61
2023-05-14T04:49:19.037Z,11.77
2023-05-14T04:51:48.171Z,12.00
2023-05-14T04:54:15.964Z,12.00
2023-05-14T04:56:43.807Z,11.98
2023-05-14T04:59:11.589Z,12.09
2023-05-14T05:01:39.439Z,12.20
2023-05-14T05:04:08.834Z,12.22
2023-05-14T05:06:36.665Z,12.34
2023-05-14T05:09:04.614Z,12.21
2023-05-14T05:11:32.430Z,12.12
2023-05-14T05:14:00.169Z,12.13
2023-05-14T05:16:27.985Z,12.16
2023-05-14T05:18:55.853Z,12.06
2023-05-14T05:21:25.140Z,12.05
2023-05-14T05:23:52.939Z,12.09
2023-05-14T05:26:22.166Z,12.25
2023-05-14T05:28:49.894Z,12.21
2023-05-14T05:31:19.697Z,11.90
2023-05-14T05:33:47.773Z,12.05
2023-05-14T05:36:15.574Z,12.22
2023-05-14T05:38:44.745Z,12.14
2023-05-14T05:41:12.580Z,12.15
2023-05-14T05:43:40.780Z,12.48
2023-05-14T05:46:08.654Z,12.62
2023-05-14T05:48:36.491Z,12.82
2023-05-14T05:51:04.308Z,12.92
2023-05-14T05:53:32.161Z,12.88
2023-05-14T05:56:01.363Z,12.82
2023-05-14T05:58:29.149Z,12.70
2023-05-14T06:00:57.758Z,12.67
2023-05-14T06:03:25.634Z,12.76
2023-05-14T06:05:53.712Z,13.08
2023-05-14T06:08:21.525Z,13.19
2023-05-14T06:10:49.756Z,13.20
2023-05-14T06:13:18.949Z,13.38
2023-05-14T06:15:46.715Z,13.26
2023-05-14T06:18:14.501Z,13.50
2023-05-14T06:20:42.491Z,13.52
2023-05-14T06:23:12.441Z,13.53
2023-05-14T06:25:40.289Z,13.78
2023-05-14T06:28:08.063Z,14.00
2023-05-14T06:30:37.203Z,14.06
2023-05-14T06:33:05.005Z,14.31
2023-05-14T06:35:33.182Z,14.22
2023-05-14T06:38:01.031Z,14.23
2023-05-14T06:40:28.806Z,14.44
2023-05-14T06:42:56.626Z,14.23
2023-05-14T06:45:24.332Z,14.13
2023-05-14T06:47:53.663Z,14.20
2023-05-14T06:50:21.756Z,14.13
2023-05-14T06:52:49.726Z,14.11
2023-05-14T06:55:17.551Z,14.28
2023-05-14T06:57:45.302Z,14.33
2023-05-14T07:00:14.399Z,14.21
2023-05-14T07:02:42.154Z,14.22
2023-05-14T07:05:11.511Z,14.35
2023-05-14T07:07:39.295Z,14.58
2023-05-14T07:10:08.180Z,14.57
2023-05-14T07:12:35.885Z,14.75
2023-05-14T07:15:03.857Z,14.77
2023-05-14T07:17:31.627Z,14.82
2023-05-14T07:19:59.398Z,14.98
2023-05-14T07:22:28.657Z,14.66
2023-05-14T07:24:56.440Z,15.06
2023-05-14T07:27:24.205Z,15.01
2023-05-14T07:29:52.024Z,15.13
2023-05-14T07:32:19.848Z,14.63
2023-05-14T07:34:47.681Z,14.76
2023-05-14T07:37:15.473Z,14.78
2023-05-14T07:39:44.694Z,14.87
2023-05-14T07:42:19.363Z,14.44
2023-05-14T07:44:52.718Z,14.67
2023-05-14T07:47:20.594Z,14.90
2023-05-14T07:49:48.368Z,14.72
2023-05-14T07:52:16.216Z,15.28
2023-05-14T07:54:45.433Z,14.99
2023-05-14T07:57:13.328Z,14.95
2023-05-14T07:59:41.099Z,14.92
2023-05-14T08:02:10.366Z,14.78
2023-05-14T08:04:38.324Z,14.75
2023-05-14T08:07:07.407Z,15.07
2023-05-14T08:09:35.110Z,15.30
2023-05-14T08:12:04.545Z,15.37
2023-05-14T08:14:32.349Z,15.18
2023-05-14T08:17:00.262Z,15.57
2023-05-14T08:19:28.543Z,15.70
2023-05-14T08:21:56.319Z,15.72
2023-05-14T08:24:24.068Z,15.47
2023-05-14T08:26:52.500Z,14.99
2023-05-14T08:29:21.620Z,15.06
2023-05-14T08:35:26.248Z,16.28
2023-05-14T08:37:53.974Z,16.16
2023-05-14T08:40:22.250Z,15.97
2023-05-14T08:42:50.179Z,15.58
2023-05-14T08:45:19.816Z,15.76
2023-05-14T08:47:48.812Z,16.01
2023-05-14T08:50:16.650Z,16.19
2023-05-14T08:52:44.671Z,16.14
2023-05-14T08:55:13.100Z,15.95
2023-05-14T08:57:40.933Z,16.30
2023-05-14T09:00:14.507Z,16.51
2023-05-14T09:02:43.750Z,16.75
2023-05-14T09:05:11.598Z,16.59
2023-05-14T09:07:39.514Z,16.73
2023-05-14T09:10:08.988Z,16.30
2023-05-14T09:12:36.833Z,16.07
2023-05-14T09:15:04.893Z,16.59
2023-05-14T09:17:32.617Z,16.88
2023-05-14T09:20:01.770Z,16.83
2023-05-14T09:22:31.887Z,16.87
2023-05-14T09:25:03.096Z,16.60
2023-05-14T09:27:31.286Z,16.67
2023-05-14T09:30:10.541Z,16.63
2023-05-14T09:32:38.937Z,16.79
2023-05-14T09:35:17.347Z,16.28
2023-05-14T09:37:48.349Z,16.57
2023-05-14T09:40:16.788Z,16.31
2023-05-14T09:42:44.641Z,16.61
2023-05-14T09:45:12.905Z,16.39
2023-05-14T09:47:40.867Z,16.97
2023-05-14T09:50:10.908Z,17.04
2023-05-14T09:52:40.317Z,16.24
2023-05-14T09:55:08.770Z,16.80
2023-05-14T09:57:36.833Z,16.88
2023-05-14T10:00:09.612Z,16.43
2023-05-14T10:02:38.923Z,16.81
2023-05-14T10:05:07.430Z,16.49
2023-05-14T10:07:36.496Z,16.63
2023-05-14T10:10:06.632Z,16.97
2023-05-14T10:12:37.397Z,17.14
2023-05-14T10:15:05.871Z,16.64
2023-05-14T10:17:35.936Z,16.42
2023-05-14T10:20:04.368Z,16.85
2023-05-14T10:22:36.901Z,17.31
2023-05-14T10:25:07.050Z,17.70
2023-05-14T10:27:34.820Z,17.88
2023-05-14T10:30:03.417Z,17.58
2023-05-14T10:32:33.157Z,17.14
2023-05-14T10:35:01.029Z,17.26
2023-05-14T10:37:28.944Z,17.34
2023-05-14T10:39:59.462Z,17.38
2023-05-14T10:42:28.876Z,17.45
2023-05-14T10:44:58.993Z,17.14
2023-05-14T10:47:26.982Z,17.13
2023-05-14T10:49:55.049Z,17.31
2023-05-14T10:52:22.954Z,17.47
2023-05-14T10:54:52.050Z,17.32
2023-05-14T10:57:20.108Z,17.65
2023-05-14T10:59:49.784Z,17.12
2023-05-14T11:02:19.946Z,17.10
2023-05-14T11:04:51.869Z,17.12
2023-05-14T11:07:19.754Z,17.02
2023-05-14T11:09:47.617Z,16.96
2023-05-14T11:12:15.410Z,17.17
2023-05-14T11:14:43.233Z,17.03
2023-05-14T11:17:15.083Z,16.96
2023-05-14T11:19:44.097Z,16.70
2023-05-14T11:22:13.778Z,16.89
2023-05-14T11:24:41.828Z,17.00
2023-05-14T11:27:10.045Z,17.21
2023-05-14T11:29:38.024Z,17.42
2023-05-14T11:32:06.406Z,17.20
2023-05-14T11:34:37.006Z,17.22
2023-05-14T11:37:05.543Z,17.32
2023-05-14T11:39:34.046Z,17.03
2023-05-14T11:42:03.510Z,16.96
2023-05-14T11:44:31.322Z,16.86
2023-05-14T11:46:59.334Z,16.88
2023-05-14T11:49:29.194Z,16.90
2023-05-14T11:52:01.892Z,16.81
2023-05-14T11:54:30.131Z,16.88
2023-05-14T11:56:58.062Z,17.13
2023-05-14T11:59:26.021Z,17.02
2023-05-14T12:01:53.921Z,16.94
2023-05-14T12:04:22.828Z,16.81
2023-05-14T12:06:50.994Z,16.90
2023-05-14T12:09:20.316Z,16.98
2023-05-14T12:11:48.189Z,17.06
2023-05-14T12:14:16.191Z,17.09
2023-05-14T12:16:44.700Z,17.23
2023-05-14T12:19:12.722Z,16.90
2023-05-14T12:21:40.755Z,16.77
2023-05-14T12:24:10.773Z,16.97
2023-05-14T12:26:40.335Z,16.95
2023-05-14T12:29:08.174Z,17.01
2023-05-14T12:31:36.459Z,16.89
2023-05-14T12:34:05.772Z,16.63
2023-05-14T12:36:33.657Z,16.46
2023-05-14T12:39:03.471Z,16.37
2023-05-14T12:41:31.259Z,16.39
2023-05-14T12:44:00.512Z,16.18
2023-05-14T12:46:28.634Z,16.22
2023-05-14T12:48:56.435Z,16.24
2023-05-14T12:51:24.309Z,16.20
2023-05-14T12:53:54.531Z,16.44
2023-05-14T12:56:27.749Z,16.64
2023-05-14T12:58:56.505Z,16.49
2023-05-14T13:01:25.951Z,16.52
2023-05-14T13:03:53.890Z,16.58
2023-05-14T13:06:21.932Z,16.60
2023-05-14T13:08:49.776Z,16.62
2023-05-14T13:11:17.613Z,16.49
2023-05-14T13:13:48.372Z,16.58
2023-05-14T13:16:17.000Z,16.76
2023-05-14T13:18:46.365Z,16.62
2023-05-14T13:21:14.280Z,16.93
2023-05-14T13:23:44.005Z,16.92
2023-05-14T13:26:11.837Z,16.78
2023-05-14T13:28:39.674Z,16.72
2023-05-14T13:31:08.204Z,16.75
2023-05-14T13:33:36.657Z,16.62
2023-05-14T13:36:06.142Z,16.73
2023-05-14T13:38:36.878Z,16.54
2023-05-14T13:41:04.911Z,16.79
2023-05-14T13:43:35.995Z,16.79
2023-05-14T13:46:04.164Z,16.71
2023-05-14T13:48:32.108Z,16.50
2023-05-14T13:50:59.964Z,16.39
2023-05-14T13:53:29.133Z,16.40
2023-05-14T13:55:58.545Z,16.25
2023-05-14T13:58:26.371Z,15.98
2023-05-14T14:00:54.281Z,15.72
2023-05-14T14:03:22.128Z,15.28
2023-05-14T14:05:50.216Z,15.14
2023-05-14T14:08:24.145Z,15.18
2023-05-14T14:10:55.384Z,14.63
2023-05-14T14:13:23.755Z,14.46
2023-05-14T14:15:51.715Z,14.78
2023-05-14T14:18:19.651Z,14.65
2023-05-14T14:20:47.414Z,14.87
2023-05-14T14:23:15.304Z,15.04
2023-05-14T14:25:43.408Z,15.29
2023-05-14T14:28:12.619Z,15.21
2023-05-14T14:30:40.376Z,15.65
2023-05-14T14:33:08.278Z,15.57
2023-05-14T14:35:37.432Z,15.51
2023-05-14T14:38:05.248Z,15.66
2023-05-14T14:40:34.015Z,15.26
2023-05-14T14:43:02.160Z,15.52
2023-05-14T14:45:31.415Z,15.33
2023-05-14T14:48:14.199Z,15.28
2023-05-14T14:50:42.069Z,15.33
2023-05-14T14:53:10.058Z,15.32
2023-05-14T14:55:37.809Z,15.36
2023-05-14T14:58:05.666Z,15.86
2023-05-14T15:00:34.854Z,15.22
2023-05-14T15:03:02.731Z,15.43
2023-05-14T15:05:30.563Z,15.44
2023-05-14T15:07:58.297Z,15.24
2023-05-14T15:10:26.109Z,15.20
2023-05-14T15:12:54.553Z,14.91
2023-05-14T15:15:22.479Z,14.64
2023-05-14T15:17:51.964Z,14.44
2023-05-14T15:20:19.761Z,14.42
2023-05-14T15:22:47.613Z,14.09
2023-05-14T15:25:15.452Z,14.25
2023-05-14T15:27:43.221Z,14.28
2023-05-14T15:30:11.636Z,14.12
2023-05-14T15:32:39.496Z,14.19
2023-05-14T15:35:11.288Z,14.10
2023-05-14T15:37:40.486Z,14.41
2023-05-14T15:40:09.179Z,14.25
2023-05-14T15:42:37.072Z,14.33
2023-05-14T15:45:05.272Z,14.09
2023-05-14T15:47:33.638Z,14.26
2023-05-14T15:50:01.686Z,14.39
2023-05-14T15:52:30.978Z,14.33
2023-05-14T15:55:13.825Z,14.25
2023-05-14T15:57:41.729Z,14.38
2023-05-14T16:00:13.069Z,14.75
2023-05-14T16:02:40.920Z,14.72
2023-05-14T16:05:08.899Z,14.66
2023-05-14T16:07:38.296Z,14.23
2023-05-14T16:10:06.671Z,14.32
2023-05-14T16:12:34.444Z,13.99
2023-05-14T16:15:02.198Z,13.94
2023-05-14T16:17:31.881Z,13.85
2023-05-14T16:20:00.318Z,13.49
2023-05-14T16:22:29.133Z,13.58
2023-05-14T16:24:58.313Z,13.32
2023-05-14T16:27:33.359Z,13.37
2023-05-14T16:30:01.246Z,13.20
2023-05-14T16:32:29.038Z,13.20
2023-05-14T16:34:56.907Z,12.97
2023-05-14T16:37:24.667Z,12.95
2023-05-14T16:39:52.397Z,13.11
2023-05-14T16:42:21.649Z,12.97
2023-05-14T16:44:49.588Z,12.93
2023-05-14T16:47:17.365Z,13.03
2023-05-14T16:49:45.226Z,13.12
2023-05-14T16:52:12.980Z,13.24
2023-05-14T16:54:40.792Z,13.41
2023-05-14T16:57:08.568Z,13.19
2023-05-14T16:59:37.792Z,13.02
2023-05-14T17:02:06.142Z,13.05
2023-05-14T17:07:13.159Z,13.22
2023-05-14T17:09:40.977Z,13.26
2023-05-14T17:12:09.672Z,13.40
2023-05-14T17:14:38.880Z,13.61
2023-05-14T17:17:06.844Z,14.06
2023-05-14T17:19:34.681Z,13.87
2023-05-14T17:22:05.982Z,14.16
2023-05-14T17:24:35.062Z,14.09
2023-05-14T17:27:02.953Z,14.33
2023-05-14T17:29:32.070Z,13.75
2023-05-14T17:32:03.729Z,14.20
2023-05-14T17:34:31.699Z,14.33
2023-05-14T17:37:00.889Z,14.44
2023-05-14T17:39:29.180Z,14.28
2023-05-14T17:41:57.113Z,14.53
2023-05-14T17:44:27.691Z,14.39
2023-05-14T17:46:55.602Z,14.34
2023-05-14T17:49:25.020Z,14.21
2023-05-14T17:51:52.867Z,14.20
2023-05-14T17:54:20.778Z,14.26
2023-05-14T17:56:51.010Z,14.52
2023-05-14T17:59:18.877Z,14.45
2023-05-14T18:01:49.095Z,14.64
2023-05-14T18:04:18.812Z,14.45
2023-05-14T18:06:48.056Z,14.30
2023-05-14T18:09:22.127Z,14.10
2023-05-14T18:11:51.312Z,13.93
2023-05-14T18:14:19.124Z,14.42
2023-05-14T18:16:47.042Z,14.31
2023-05-14T18:19:17.154Z,14.03
2023-05-14T18:21:46.911Z,14.02
2023-05-14T18:24:16.595Z,13.95
2023-05-14T18:26:44.654Z,14.35
2023-05-14T18:29:12.915Z,13.35
2023-05-14T18:31:42.010Z,13.70
2023-05-14T18:34:12.315Z,13.33
2023-05-14T18:36:40.258Z,13.41
2023-05-14T18:39:09.950Z,12.82
2023-05-14T18:41:39.597Z,12.03
2023-05-14T18:44:07.413Z,12.73
2023-05-14T18:46:35.435Z,12.81
2023-05-14T18:49:03.314Z,13.09
2023-05-14T18:51:31.407Z,13.37
2023-05-14T18:53:59.191Z,12.82
2023-05-14T18:56:27.130Z,12.87
2023-05-14T18:58:56.319Z,12.84
2023-05-14T19:01:25.755Z,12.78
2023-05-14T19:03:53.874Z,12.92
2023-05-14T19:06:25.149Z,12.62
2023-05-14T19:08:53.069Z,12.09
2023-05-14T19:11:23.078Z,11.85
2023-05-14T19:13:51.059Z,12.35
2023-05-14T19:16:20.303Z,12.26
2023-05-14T19:18:48.455Z,11.75
2023-05-14T19:21:16.689Z,10.99
2023-05-14T19:23:45.833Z,11.00
2023-05-14T19:26:13.691Z,11.67
2023-05-14T19:28:41.781Z,11.85
2023-05-14T19:31:09.563Z,12.26
2023-05-14T19:33:38.815Z,12.08
2023-05-14T19:36:06.802Z,12.09
2023-05-14T19:38:34.672Z,11.81
2023-05-14T19:41:02.613Z,11.43
2023-05-14T19:43:30.497Z,10.76
2023-05-14T19:46:01.319Z,11.04
2023-05-14T19:48:31.365Z,11.42
2023-05-14T19:51:00.652Z,11.41
2023-05-14T19:53:30.868Z,10.47
2023-05-14T19:55:58.740Z,10.81
2023-05-14T19:58:26.587Z,11.28
2023-05-14T20:01:00.898Z,11.21
2023-05-14T20:03:29.649Z,10.83
2023-05-14T20:05:58.174Z,10.52
2023-05-14T20:08:29.140Z,10.64
2023-05-14T20:10:57.015Z,10.88
2023-05-14T20:13:25.457Z,10.67
2023-05-14T20:15:55.277Z,10.46
2023-05-14T20:18:23.154Z,10.55
2023-05-14T20:20:51.031Z,10.75
2023-05-14T20:23:18.890Z,11.22
2023-05-14T20:25:51.934Z,11.40
2023-05-14T20:28:19.833Z,11.07
2023-05-14T20:30:48.926Z,11.22
2023-05-14T20:33:17.130Z,11.19
2023-05-14T20:35:45.167Z,11.31
2023-05-14T20:38:13.512Z,11.37
2023-05-14T20:40:41.475Z,11.04
2023-05-14T20:43:10.704Z,10.92
2023-05-14T20:45:39.222Z,10.57
2023-05-14T20:48:10.138Z,10.12
2023-05-14T20:50:38.044Z,10.43
2023-05-14T20:53:05.988Z,10.90
2023-05-14T20:55:33.769Z,10.64
2023-05-14T20:58:01.578Z,11.17
2023-05-14T21:00:30.737Z,11.57
2023-05-14T21:02:59.690Z,11.23
2023-05-14T21:05:27.893Z,10.44
2023-05-14T21:07:55.975Z,10.44
2023-05-14T21:10:24.050Z,11.44
2023-05-14T21:12:52.512Z,11.80
2023-05-14T21:15:20.273Z,11.83
2023-05-14T21:17:49.544Z,12.03
2023-05-14T21:20:17.435Z,11.88
2023-05-14T21:22:45.220Z,12.19
2023-05-14T21:25:13.005Z,11.14
2023-05-14T21:27:40.762Z,11.13
2023-05-14T21:30:09.220Z,11.16
2023-05-14T21:32:37.017Z,10.88
2023-05-14T21:35:07.067Z,10.70
2023-05-14T21:37:34.950Z,10.62
2023-05-14T21:40:02.731Z,10.47
2023-05-14T21:42:30.562Z,10.60
2023-05-14T21:44:58.376Z,10.55
2023-05-14T21:47:26.211Z,9.29
2023-05-14T21:49:54.036Z,9.59
2023-05-14T21:52:23.258Z,9.96
2023-05-14T21:54:51.017Z,9.79
2023-05-14T21:57:18.874Z,10.18
2023-05-14T21:59:46.745Z,10.01
2023-05-14T22:02:14.622Z,9.63
2023-05-14T22:04:42.404Z,10.09
2023-05-14T22:07:10.248Z,10.50
2023-05-14T22:09:39.408Z,10.28
2023-05-14T22:12:07.944Z,9.54
2023-05-14T22:14:35.722Z,9.48
2023-05-14T22:17:03.586Z,9.98
2023-05-14T22:19:31.391Z,10.00
2023-05-14T22:21:59.213Z,10.38
2023-05-14T22:24:27.001Z,10.66
2023-05-14T22:26:56.253Z,10.65
2023-05-14T22:29:24.074Z,11.11
2023-05-14T22:31:52.005Z,10.35
2023-05-14T22:34:20.432Z,10.08
2023-05-14T22:36:48.256Z,10.29
2023-05-14T22:39:16.056Z,10.66
2023-05-14T22:41:43.871Z,10.74
2023-05-14T22:44:13.120Z,10.19
2023-05-14T22:46:41.019Z,10.32
2023-05-14T22:49:08.857Z,10.85
2023-05-14T22:51:36.633Z,10.75
2023-05-14T22:54:04.532Z,10.55
2023-05-14T22:56:32.280Z,10.49
2023-05-14T22:59:00.353Z,10.62
2023-05-14T23:01:29.609Z,10.55
2023-05-14T23:03:57.484Z,10.65
2023-05-14T23:06:25.726Z,10.57
2023-05-14T23:08:53.557Z,10.44
2023-05-14T23:11:21.524Z,10.64
2023-05-14T23:13:49.386Z,10.70
2023-05-14T23:16:17.157Z,10.49
2023-05-14T23:18:46.527Z,10.60
2023-05-14T23:21:15.085Z,10.55
2023-05-14T23:23:42.922Z,10.53
2023-05-14T23:26:10.758Z,10.52
2023-05-14T23:28:38.553Z,10.59
2023-05-14T23:31:06.373Z,10.58
2023-05-14T23:33:34.180Z,10.23
2023-05-14T23:36:03.559Z,9.97
2023-05-14T23:38:31.387Z,10.57
2023-05-14T23:40:59.225Z,10.41
2023-05-14T23:43:27.043Z,10.36
2023-05-14T23:45:54.890Z,10.45
2023-05-14T23:48:22.699Z,10.39
2023-05-14T23:50:50.887Z,10.30
2023-05-14T23:53:20.072Z,10.19
2023-05-14T23:55:47.929Z,9.50
2023-05-14T23:58:15.754Z,9.64
